sensor_id;sensor_type;location;lat;lon;timestamp;pressure;altitude;pressure_sealevel;temperature;humidity
57948;BME280;43754;56.992;24.292;2023-02-15T00:02:15;103031.38;;;0.76;100.00
57948;BME280;43754;56.992;24.292;2023-02-15T00:04:47;103035.84;;;0.74;100.00
57948;BME280;43754;56.992;24.292;2023-02-15T00:07:19;103035.00;;;0.74;100.00
57948;BME280;43754;56.992;24.292;2023-02-15T00:09:51;103023.44;;;0.76;100.00
57948;BME280;43754;56.992;24.292;2023-02-15T00:12:24;103026.91;;;0.78;100.00
57948;BME280;43754;56.992;24.292;2023-02-15T00:14:56;103031.13;;;0.82;100.00
57948;BME280;43754;56.992;24.292;2023-02-15T00:17:29;103031.91;;;0.84;100.00
57948;BME280;43754;56.992;24.292;2023-02-15T00:20:01;103032.72;;;0.86;100.00
57948;BME280;43754;56.992;24.292;2023-02-15T00:22:33;103025.78;;;0.84;100.00
57948;BME280;43754;56.992;24.292;2023-02-15T00:25:05;103035.41;;;0.85;100.00
57948;BME280;43754;56.992;24.292;2023-02-15T00:27:38;103027.44;;;0.86;100.00
57948;BME280;43754;56.992;24.292;2023-02-15T00:30:11;103021.25;;;0.87;100.00
57948;BME280;43754;56.992;24.292;2023-02-15T00:32:43;103013.34;;;0.87;100.00
57948;BME280;43754;56.992;24.292;2023-02-15T00:35:16;103017.63;;;0.90;100.00
57948;BME280;43754;56.992;24.292;2023-02-15T00:37:47;103020.25;;;0.90;100.00
57948;BME280;43754;56.992;24.292;2023-02-15T00:40:20;103018.47;;;0.90;100.00
57948;BME280;43754;56.992;24.292;2023-02-15T00:42:54;103028.22;;;0.88;100.00
57948;BME280;43754;56.992;24.292;2023-02-15T00:45:26;103024.63;;;0.91;100.00
57948;BME280;43754;56.992;24.292;2023-02-15T00:47:57;103014.84;;;0.93;100.00
57948;BME280;43754;56.992;24.292;2023-02-15T00:50:29;103023.63;;;0.93;100.00
57948;BME280;43754;56.992;24.292;2023-02-15T00:53:01;103013.88;;;0.96;100.00
57948;BME280;43754;56.992;24.292;2023-02-15T00:55:34;103016.44;;;0.97;100.00
57948;BME280;43754;56.992;24.292;2023-02-15T00:58:08;103015.47;;;1.00;100.00
57948;BME280;43754;56.992;24.292;2023-02-15T01:00:41;103009.19;;;1.02;100.00
57948;BME280;43754;56.992;24.292;2023-02-15T01:03:15;103009.19;;;1.02;100.00
57948;BME280;43754;56.992;24.292;2023-02-15T01:05:48;103008.31;;;1.02;100.00
57948;BME280;43754;56.992;24.292;2023-02-15T01:08:21;103007.56;;;1.00;100.00
57948;BME280;43754;56.992;24.292;2023-02-15T01:10:53;103008.31;;;1.02;100.00
57948;BME280;43754;56.992;24.292;2023-02-15T01:13:26;103010.97;;;1.02;100.00
57948;BME280;43754;56.992;24.292;2023-02-15T01:15:58;103002.91;;;1.05;100.00
57948;BME280;43754;56.992;24.292;2023-02-15T01:18:31;103000.28;;;1.05;100.00
57948;BME280;43754;56.992;24.292;2023-02-15T01:21:10;102994.06;;;1.06;100.00
57948;BME280;43754;56.992;24.292;2023-02-15T01:23:42;103000.41;;;1.02;100.00
57948;BME280;43754;56.992;24.292;2023-02-15T01:26:17;102995.94;;;1.04;100.00
57948;BME280;43754;56.992;24.292;2023-02-15T01:28:50;102991.44;;;1.06;100.00
57948;BME280;43754;56.992;24.292;2023-02-15T01:31:22;102993.22;;;1.05;100.00
57948;BME280;43754;56.992;24.292;2023-02-15T01:33:54;102993.22;;;1.05;100.00
57948;BME280;43754;56.992;24.292;2023-02-15T01:36:26;102987.94;;;1.05;100.00
57948;BME280;43754;56.992;24.292;2023-02-15T01:38:58;102997.63;;;1.05;100.00
57948;BME280;43754;56.992;24.292;2023-02-15T01:41:30;102995.13;;;1.02;100.00
57948;BME280;43754;56.992;24.292;2023-02-15T01:47:13;102990.53;;;1.07;100.00
57948;BME280;43754;56.992;24.292;2023-02-15T01:49:46;102993.16;;;1.07;100.00
57948;BME280;43754;56.992;24.292;2023-02-15T01:52:19;102988.78;;;1.06;100.00
57948;BME280;43754;56.992;24.292;2023-02-15T01:54:51;102991.38;;;1.07;100.00
57948;BME280;43754;56.992;24.292;2023-02-15T01:57:25;102985.25;;;1.07;100.00
57948;BME280;43754;56.992;24.292;2023-02-15T02:00:02;102984.44;;;1.05;100.00
57948;BME280;43754;56.992;24.292;2023-02-15T02:02:46;102982.72;;;1.04;100.00
57948;BME280;43754;56.992;24.292;2023-02-15T02:05:20;102981.00;;;1.03;100.00
57948;BME280;43754;56.992;24.292;2023-02-15T02:07:54;102974.88;;;1.02;100.00
57948;BME280;43754;56.992;24.292;2023-02-15T02:10:27;102969.63;;;1.01;100.00
57948;BME280;43754;56.992;24.292;2023-02-15T02:13:03;102967.94;;;1.00;100.00
57948;BME280;43754;56.992;24.292;2023-02-15T02:15:42;102966.34;;;0.96;100.00
57948;BME280;43754;56.992;24.292;2023-02-15T02:18:30;102961.06;;;0.96;100.00
57948;BME280;43754;56.992;24.292;2023-02-15T02:21:30;102966.41;;;0.94;100.00
57948;BME280;43754;56.992;24.292;2023-02-15T02:24:34;102966.44;;;0.92;100.00
57948;BME280;43754;56.992;24.292;2023-02-15T02:30:36;102979.31;;;0.80;100.00
57948;BME280;43754;56.992;24.292;2023-02-15T02:33:25;102978.25;;;0.84;100.00
57948;BME280;43754;56.992;24.292;2023-02-15T02:36:07;102987.84;;;0.86;100.00
57948;BME280;43754;56.992;24.292;2023-02-15T02:38:56;102994.53;;;0.73;100.00
57948;BME280;43754;56.992;24.292;2023-02-15T02:41:37;103003.13;;;0.78;100.00
57948;BME280;43754;56.992;24.292;2023-02-15T02:44:16;102998.63;;;0.80;100.00
57948;BME280;43754;56.992;24.292;2023-02-15T02:46:53;102999.50;;;0.81;100.00
57948;BME280;43754;56.992;24.292;2023-02-15T02:49:35;102993.31;;;0.82;100.00
57948;BME280;43754;56.992;24.292;2023-02-15T02:52:35;103003.06;;;0.80;100.00
57948;BME280;43754;56.992;24.292;2023-02-15T02:55:12;103005.78;;;0.78;100.00
57948;BME280;43754;56.992;24.292;2023-02-15T02:57:52;102995.44;;;0.72;100.00
57948;BME280;43754;56.992;24.292;2023-02-15T03:00:26;103004.41;;;0.68;100.00
57948;BME280;43754;56.992;24.292;2023-02-15T03:03:06;102999.22;;;0.67;100.00
57948;BME280;43754;56.992;24.292;2023-02-15T03:05:45;102998.41;;;0.65;100.00
57948;BME280;43754;56.992;24.292;2023-02-15T03:08:20;102998.47;;;0.63;100.00
57948;BME280;43754;56.992;24.292;2023-02-15T03:10:59;102999.41;;;0.62;100.00
57948;BME280;43754;56.992;24.292;2023-02-15T03:13:34;102995.94;;;0.60;100.00
57948;BME280;43754;56.992;24.292;2023-02-15T03:16:09;102997.66;;;0.61;100.00
57948;BME280;43754;56.992;24.292;2023-02-15T03:19:02;102997.66;;;0.61;100.00
57948;BME280;43754;56.992;24.292;2023-02-15T03:21:42;102995.16;;;0.58;100.00
57948;BME280;43754;56.992;24.292;2023-02-15T03:24:23;102989.19;;;0.53;100.00
57948;BME280;43754;56.992;24.292;2023-02-15T03:26:58;102985.88;;;0.48;100.00
57948;BME280;43754;56.992;24.292;2023-02-15T03:29:31;102988.56;;;0.46;100.00
57948;BME280;43754;56.992;24.292;2023-02-15T03:32:07;102995.63;;;0.46;100.00
57948;BME280;43754;56.992;24.292;2023-02-15T03:34:41;102989.56;;;0.44;100.00
57948;BME280;43754;56.992;24.292;2023-02-15T03:37:19;102992.19;;;0.44;100.00
57948;BME280;43754;56.992;24.292;2023-02-15T03:39:57;102988.75;;;0.42;100.00
57948;BME280;43754;56.992;24.292;2023-02-15T03:43:00;102988.88;;;0.39;100.00
57948;BME280;43754;56.992;24.292;2023-02-15T03:45:35;102996.97;;;0.34;100.00
57948;BME280;43754;56.992;24.292;2023-02-15T03:48:08;102990.09;;;0.30;100.00
57948;BME280;43754;56.992;24.292;2023-02-15T03:50:40;102988.47;;;0.26;100.00
57948;BME280;43754;56.992;24.292;2023-02-15T03:53:32;102986.16;;;0.19;100.00
57948;BME280;43754;56.992;24.292;2023-02-15T03:56:05;102984.53;;;0.15;100.00
57948;BME280;43754;56.992;24.292;2023-02-15T03:58:37;102982.91;;;0.12;100.00
57948;BME280;43754;56.992;24.292;2023-02-15T04:01:34;102975.94;;;0.10;100.00
57948;BME280;43754;56.992;24.292;2023-02-15T04:04:35;102975.34;;;0.03;100.00
57948;BME280;43754;56.992;24.292;2023-02-15T04:07:08;102969.31;;;-0.01;100.00
57948;BME280;43754;56.992;24.292;2023-02-15T04:09:42;102973.91;;;-0.06;100.00
57948;BME280;43754;56.992;24.292;2023-02-15T04:12:33;102971.47;;;-0.12;100.00
57948;BME280;43754;56.992;24.292;2023-02-15T04:15:05;102975.22;;;-0.17;100.00
57948;BME280;43754;56.992;24.292;2023-02-15T04:17:55;102971.88;;;-0.22;100.00
57948;BME280;43754;56.992;24.292;2023-02-15T04:20:27;102978.22;;;-0.28;100.00
57948;BME280;43754;56.992;24.292;2023-02-15T04:23:18;102976.56;;;-0.30;100.00
57948;BME280;43754;56.992;24.292;2023-02-15T04:26:09;102977.59;;;-0.34;100.00
57948;BME280;43754;56.992;24.292;2023-02-15T04:28:41;102978.56;;;-0.37;100.00
57948;BME280;43754;56.992;24.292;2023-02-15T04:31:13;102974.31;;;-0.41;100.00
57948;BME280;43754;56.992;24.292;2023-02-15T04:33:45;102972.66;;;-0.43;100.00
57948;BME280;43754;56.992;24.292;2023-02-15T04:36:17;102969.19;;;-0.46;100.00
57948;BME280;43754;56.992;24.292;2023-02-15T04:38:49;102971.06;;;-0.48;100.00
57948;BME280;43754;56.992;24.292;2023-02-15T04:41:22;102972.78;;;-0.47;100.00
57948;BME280;43754;56.992;24.292;2023-02-15T04:43:54;102968.47;;;-0.49;100.00
57948;BME280;43754;56.992;24.292;2023-02-15T04:46:27;102965.81;;;-0.49;100.00
57948;BME280;43754;56.992;24.292;2023-02-15T04:48:59;102961.56;;;-0.53;100.00
57948;BME280;43754;56.992;24.292;2023-02-15T04:51:31;102959.84;;;-0.54;100.00
57948;BME280;43754;56.992;24.292;2023-02-15T04:54:03;102954.66;;;-0.56;100.00
57948;BME280;43754;56.992;24.292;2023-02-15T04:56:36;102952.94;;;-0.57;100.00
57948;BME280;43754;56.992;24.292;2023-02-15T04:59:09;102948.69;;;-0.61;100.00
57948;BME280;43754;56.992;24.292;2023-02-15T05:01:41;102951.47;;;-0.65;100.00
57948;BME280;43754;56.992;24.292;2023-02-15T05:04:13;102943.69;;;-0.68;100.00
57948;BME280;43754;56.992;24.292;2023-02-15T05:06:45;102948.16;;;-0.70;100.00
57948;BME280;43754;56.992;24.292;2023-02-15T05:09:17;102945.63;;;-0.73;100.00
57948;BME280;43754;56.992;24.292;2023-02-15T05:11:51;102948.31;;;-0.75;100.00
57948;BME280;43754;56.992;24.292;2023-02-15T05:14:30;102951.91;;;-0.77;100.00
57948;BME280;43754;56.992;24.292;2023-02-15T05:17:08;102944.06;;;-0.79;100.00
57948;BME280;43754;56.992;24.292;2023-02-15T05:19:40;102948.50;;;-0.79;100.00
57948;BME280;43754;56.992;24.292;2023-02-15T05:22:11;102938.91;;;-0.82;100.00
57948;BME280;43754;56.992;24.292;2023-02-15T05:24:43;102935.53;;;-0.85;100.00
57948;BME280;43754;56.992;24.292;2023-02-15T05:27:35;102941.66;;;-0.85;100.00
57948;BME280;43754;56.992;24.292;2023-02-15T05:30:25;102954.06;;;-0.88;100.00
57948;BME280;43754;56.992;24.292;2023-02-15T05:32:58;102950.56;;;-0.89;100.00
57948;BME280;43754;56.992;24.292;2023-02-15T05:35:30;102948.13;;;-0.95;100.00
57948;BME280;43754;56.992;24.292;2023-02-15T05:38:02;102945.56;;;-0.97;100.00
57948;BME280;43754;56.992;24.292;2023-02-15T05:40:34;102941.31;;;-1.01;100.00
57948;BME280;43754;56.992;24.292;2023-02-15T05:43:07;102940.38;;;-1.00;100.00
57948;BME280;43754;56.992;24.292;2023-02-15T05:45:39;102941.31;;;-1.01;100.00
57948;BME280;43754;56.992;24.292;2023-02-15T05:48:11;102937.75;;;-1.00;100.00
57948;BME280;43754;56.992;24.292;2023-02-15T05:50:44;102938.69;;;-1.01;100.00
57948;BME280;43754;56.992;24.292;2023-02-15T05:53:16;102937.88;;;-1.03;100.00
57948;BME280;43754;56.992;24.292;2023-02-15T05:55:48;102939.75;;;-1.06;100.00
57948;BME280;43754;56.992;24.292;2023-02-15T05:58:21;102935.38;;;-1.07;100.00
57948;BME280;43754;56.992;24.292;2023-02-15T06:00:53;102938.13;;;-1.10;100.00
57948;BME280;43754;56.992;24.292;2023-02-15T06:03:25;102944.25;;;-1.10;100.00
57948;BME280;43754;56.992;24.292;2023-02-15T06:06:00;102942.41;;;-1.08;100.00
57948;BME280;43754;56.992;24.292;2023-02-15T06:08:33;102937.16;;;-1.08;100.00
57948;BME280;43754;56.992;24.292;2023-02-15T06:11:06;102941.47;;;-1.05;100.00
57948;BME280;43754;56.992;24.292;2023-02-15T06:13:39;102936.97;;;-1.02;100.00
57948;BME280;43754;56.992;24.292;2023-02-15T06:16:11;102939.44;;;-0.97;100.00
57948;BME280;43754;56.992;24.292;2023-02-15T06:18:43;102940.31;;;-0.97;100.00
57948;BME280;43754;56.992;24.292;2023-02-15T06:21:15;102944.63;;;-0.96;100.00
57948;BME280;43754;56.992;24.292;2023-02-15T06:23:47;102941.94;;;-0.93;100.00
57948;BME280;43754;56.992;24.292;2023-02-15T06:26:19;102934.03;;;-0.93;100.00
57948;BME280;43754;56.992;24.292;2023-02-15T06:28:53;102938.34;;;-0.92;100.00
57948;BME280;43754;56.992;24.292;2023-02-15T06:31:25;102937.41;;;-0.89;100.00
57948;BME280;43754;56.992;24.292;2023-02-15T06:33:57;102930.25;;;-0.85;100.00
57948;BME280;43754;56.992;24.292;2023-02-15T06:36:32;102934.47;;;-0.80;100.00
57948;BME280;43754;56.992;24.292;2023-02-15T06:39:04;102935.22;;;-0.76;100.00
57948;BME280;43754;56.992;24.292;2023-02-15T06:41:37;102937.78;;;-0.75;100.00
57948;BME280;43754;56.992;24.292;2023-02-15T06:44:10;102933.28;;;-0.71;100.00
57948;BME280;43754;56.992;24.292;2023-02-15T06:46:42;102934.78;;;-0.64;100.00
57948;BME280;43754;56.992;24.292;2023-02-15T06:49:14;102927.75;;;-0.64;100.00
57948;BME280;43754;56.992;24.292;2023-02-15T06:51:46;102928.25;;;-0.54;100.00
57948;BME280;43754;56.992;24.292;2023-02-15T06:54:18;102935.94;;;-0.48;100.00
57948;BME280;43754;56.992;24.292;2023-02-15T06:56:50;102934.72;;;-0.38;100.00
57948;BME280;43754;56.992;24.292;2023-02-15T06:59:24;102933.56;;;-0.31;100.00
57948;BME280;43754;56.992;24.292;2023-02-15T07:01:56;102934.09;;;-0.21;100.00
57948;BME280;43754;56.992;24.292;2023-02-15T07:04:28;102931.84;;;-0.09;100.00
57948;BME280;43754;56.992;24.292;2023-02-15T07:07:01;102933.03;;;0.06;100.00
57948;BME280;43754;56.992;24.292;2023-02-15T07:09:33;102939.41;;;0.22;100.00
57948;BME280;43754;56.992;24.292;2023-02-15T07:12:05;102943.28;;;0.35;100.00
57948;BME280;43754;56.992;24.292;2023-02-15T07:14:58;102949.53;;;0.55;100.00
57948;BME280;43754;56.992;24.292;2023-02-15T07:17:30;102956.72;;;0.51;100.00
57948;BME280;43754;56.992;24.292;2023-02-15T07:20:09;102960.38;;;0.70;100.00
57948;BME280;43754;56.992;24.292;2023-02-15T07:22:41;102949.47;;;0.78;100.00
57948;BME280;43754;56.992;24.292;2023-02-15T07:25:13;102953.19;;;0.74;100.00
57948;BME280;43754;56.992;24.292;2023-02-15T07:27:45;102948.75;;;0.74;100.00
57948;BME280;43754;56.992;24.292;2023-02-15T07:30:19;102948.31;;;0.85;100.00
57948;BME280;43754;56.992;24.292;2023-02-15T07:32:54;102944.09;;;1.01;100.00
57948;BME280;43754;56.992;24.292;2023-02-15T07:35:48;102953.69;;;1.04;100.00
57948;BME280;43754;56.992;24.292;2023-02-15T07:38:21;102950.53;;;1.16;100.00
57948;BME280;43754;56.992;24.292;2023-02-15T07:40:57;102967.09;;;1.19;100.00
57948;BME280;43754;56.992;24.292;2023-02-15T07:43:32;102965.56;;;1.14;100.00
57948;BME280;43754;56.992;24.292;2023-02-15T07:46:07;102970.16;;;1.09;100.00
57948;BME280;43754;56.992;24.292;2023-02-15T07:48:40;102970.03;;;0.91;100.00
57948;BME280;43754;56.992;24.292;2023-02-15T07:51:13;102974.13;;;0.99;100.00
57948;BME280;43754;56.992;24.292;2023-02-15T07:53:46;102975.78;;;1.01;100.00
57948;BME280;43754;56.992;24.292;2023-02-15T07:56:18;102968.03;;;0.97;100.00
57948;BME280;43754;56.992;24.292;2023-02-15T07:58:50;102976.91;;;0.96;100.00
57948;BME280;43754;56.992;24.292;2023-02-15T08:01:25;102978.00;;;0.90;100.00
57948;BME280;43754;56.992;24.292;2023-02-15T08:03:58;102978.88;;;0.90;100.00
57948;BME280;43754;56.992;24.292;2023-02-15T08:06:33;102977.44;;;1.04;100.00
57948;BME280;43754;56.992;24.292;2023-02-15T08:09:06;102978.00;;;1.12;100.00
57948;BME280;43754;56.992;24.292;2023-02-15T08:11:39;102972.16;;;1.04;100.00
57948;BME280;43754;56.992;24.292;2023-02-15T08:14:14;102971.16;;;1.06;100.00
57948;BME280;43754;56.992;24.292;2023-02-15T08:16:48;102973.09;;;1.03;100.00
57948;BME280;43754;56.992;24.292;2023-02-15T08:19:23;102964.78;;;1.12;100.00
57948;BME280;43754;56.992;24.292;2023-02-15T08:21:56;102963.19;;;1.28;100.00
57948;BME280;43754;56.992;24.292;2023-02-15T08:24:32;102957.88;;;1.29;100.00
57948;BME280;43754;56.992;24.292;2023-02-15T08:27:05;102955.75;;;1.37;100.00
57948;BME280;43754;56.992;24.292;2023-02-15T08:29:38;102955.25;;;1.48;100.00
57948;BME280;43754;56.992;24.292;2023-02-15T08:32:12;102957.38;;;1.40;100.00
57948;BME280;43754;56.992;24.292;2023-02-15T08:34:45;102965.44;;;1.37;100.00
57948;BME280;43754;56.992;24.292;2023-02-15T08:37:17;102961.09;;;1.36;100.00
57948;BME280;43754;56.992;24.292;2023-02-15T08:39:49;102958.16;;;1.42;100.00
57948;BME280;43754;56.992;24.292;2023-02-15T08:42:21;102963.19;;;1.48;100.00
57948;BME280;43754;56.992;24.292;2023-02-15T08:44:53;102957.91;;;1.48;100.00
57948;BME280;43754;56.992;24.292;2023-02-15T08:47:27;102961.22;;;1.53;100.00
57948;BME280;43754;56.992;24.292;2023-02-15T08:49:59;102960.06;;;1.59;100.00
57948;BME280;43754;56.992;24.292;2023-02-15T08:52:31;102961.56;;;1.64;100.00
57948;BME280;43754;56.992;24.292;2023-02-15T08:55:03;102966.34;;;1.56;100.00
57948;BME280;43754;56.992;24.292;2023-02-15T08:57:35;102960.16;;;1.37;100.00
57948;BME280;43754;56.992;24.292;2023-02-15T09:00:08;102964.81;;;1.51;100.00
57948;BME280;43754;56.992;24.292;2023-02-15T09:02:42;102964.56;;;1.57;100.00
57948;BME280;43754;56.992;24.292;2023-02-15T09:05:14;102966.19;;;1.59;100.00
57948;BME280;43754;56.992;24.292;2023-02-15T09:07:46;102964.50;;;1.58;100.00
57948;BME280;43754;56.992;24.292;2023-02-15T09:10:18;102969.38;;;1.47;100.00
57948;BME280;43754;56.992;24.292;2023-02-15T09:12:50;102965.88;;;1.47;100.00
57948;BME280;43754;56.992;24.292;2023-02-15T09:15:22;102964.38;;;1.61;100.00
57948;BME280;43754;56.992;24.292;2023-02-15T09:17:56;102966.28;;;1.58;100.00
57948;BME280;43754;56.992;24.292;2023-02-15T09:20:30;102966.28;;;1.58;100.00
57948;BME280;43754;56.992;24.292;2023-02-15T09:23:02;102966.09;;;1.62;100.00
57948;BME280;43754;56.992;24.292;2023-02-15T09:25:35;102969.16;;;1.72;100.00
57948;BME280;43754;56.992;24.292;2023-02-15T09:28:07;102965.75;;;1.70;100.00
57948;BME280;43754;56.992;24.292;2023-02-15T09:30:42;102961.22;;;1.72;100.00
57948;BME280;43754;56.992;24.292;2023-02-15T09:33:15;102963.00;;;1.71;100.00
57948;BME280;43754;56.992;24.292;2023-02-15T09:35:47;102969.25;;;1.70;100.00
57948;BME280;43754;56.992;24.292;2023-02-15T09:38:19;102972.75;;;1.71;100.00
57948;BME280;43754;56.992;24.292;2023-02-15T09:41:02;102962.84;;;1.56;100.00
57948;BME280;43754;56.992;24.292;2023-02-15T09:43:39;102963.25;;;1.47;100.00
57948;BME280;43754;56.992;24.292;2023-02-15T09:46:33;102957.44;;;1.38;100.00
57948;BME280;43754;56.992;24.292;2023-02-15T09:49:15;102960.50;;;1.50;100.00
57948;BME280;43754;56.992;24.292;2023-02-15T09:52:06;102957.53;;;1.37;100.00
57948;BME280;43754;56.992;24.292;2023-02-15T09:54:49;102955.47;;;1.44;100.00
57948;BME280;43754;56.992;24.292;2023-02-15T09:57:30;102961.13;;;1.55;100.00
57948;BME280;43754;56.992;24.292;2023-02-15T10:00:12;102958.91;;;1.46;100.00
57948;BME280;43754;56.992;24.292;2023-02-15T10:02:56;102959.22;;;1.58;100.00
57948;BME280;43754;56.992;24.292;2023-02-15T10:05:43;102960.16;;;1.57;100.00
57948;BME280;43754;56.992;24.292;2023-02-15T10:08:39;102958.63;;;1.52;100.00
57948;BME280;43754;56.992;24.292;2023-02-15T10:11:20;102959.34;;;1.55;100.00
57948;BME280;43754;56.992;24.292;2023-02-15T10:14:25;102958.47;;;1.55;100.00
57948;BME280;43754;56.992;24.292;2023-02-15T10:17:09;102964.09;;;1.47;100.00
57948;BME280;43754;56.992;24.292;2023-02-15T10:19:51;102959.78;;;1.46;100.00
57948;BME280;43754;56.992;24.292;2023-02-15T10:22:36;102958.47;;;1.55;100.00
57948;BME280;43754;56.992;24.292;2023-02-15T10:25:27;102958.56;;;1.53;100.00
57948;BME280;43754;56.992;24.292;2023-02-15T10:28:05;102954.91;;;1.56;100.00
57948;BME280;43754;56.992;24.292;2023-02-15T10:30:43;102962.38;;;1.66;100.00
57948;BME280;43754;56.992;24.292;2023-02-15T10:33:32;102961.13;;;1.75;100.00
57948;BME280;43754;56.992;24.292;2023-02-15T10:36:16;102961.03;;;1.76;100.00
57948;BME280;43754;56.992;24.292;2023-02-15T10:39:00;102958.53;;;1.73;100.00
57948;BME280;43754;56.992;24.292;2023-02-15T10:41:40;102959.91;;;1.82;100.00
57948;BME280;43754;56.992;24.292;2023-02-15T10:44:27;102962.41;;;1.85;100.00
57948;BME280;43754;56.992;24.292;2023-02-15T10:47:22;102963.97;;;1.89;100.00
57948;BME280;43754;56.992;24.292;2023-02-15T10:50:08;102958.69;;;1.89;100.00
57948;BME280;43754;56.992;24.292;2023-02-15T10:52:54;102957.81;;;1.89;100.00
57948;BME280;43754;56.992;24.292;2023-02-15T10:55:41;102959.34;;;1.94;100.00
57948;BME280;43754;56.992;24.292;2023-02-15T10:58:24;102962.59;;;1.80;100.00
57948;BME280;43754;56.992;24.292;2023-02-15T11:01:02;102951.81;;;1.85;100.00
57948;BME280;43754;56.992;24.292;2023-02-15T11:03:48;102958.97;;;1.83;100.00
57948;BME280;43754;56.992;24.292;2023-02-15T11:06:26;102957.31;;;1.80;100.00
57948;BME280;43754;56.992;24.292;2023-02-15T11:09:02;102957.13;;;1.85;100.00
57948;BME280;43754;56.992;24.292;2023-02-15T11:11:37;102950.34;;;1.79;100.00
57948;BME280;43754;56.992;24.292;2023-02-15T11:14:27;102949.78;;;1.71;100.00
57948;BME280;43754;56.992;24.292;2023-02-15T11:17:05;102960.66;;;1.65;100.00
57948;BME280;43754;56.992;24.292;2023-02-15T11:19:45;102949.28;;;1.63;100.00
57948;BME280;43754;56.992;24.292;2023-02-15T11:22:20;102953.34;;;1.52;100.00
57948;BME280;43754;56.992;24.292;2023-02-15T11:24:52;102948.50;;;1.61;100.00
57948;BME280;43754;56.992;24.292;2023-02-15T11:27:30;102948.09;;;1.70;100.00
57948;BME280;43754;56.992;24.292;2023-02-15T11:30:10;102954.56;;;1.63;100.00
57948;BME280;43754;56.992;24.292;2023-02-15T11:32:45;102956.44;;;1.61;100.00
57948;BME280;43754;56.992;24.292;2023-02-15T11:35:24;102952.75;;;1.45;100.00
57948;BME280;43754;56.992;24.292;2023-02-15T11:38:04;102949.78;;;1.53;100.00
57948;BME280;43754;56.992;24.292;2023-02-15T11:40:43;102957.84;;;1.50;100.00
57948;BME280;43754;56.992;24.292;2023-02-15T11:43:23;102951.94;;;1.63;100.00
57948;BME280;43754;56.992;24.292;2023-02-15T11:45:57;102946.59;;;1.65;100.00
57948;BME280;43754;56.992;24.292;2023-02-15T11:48:30;102948.16;;;1.69;100.00
57948;BME280;43754;56.992;24.292;2023-02-15T11:51:03;102944.44;;;1.73;100.00
57948;BME280;43754;56.992;24.292;2023-02-15T11:53:37;102933.59;;;1.79;100.00
57948;BME280;43754;56.992;24.292;2023-02-15T11:56:13;102937.75;;;1.84;100.00
57948;BME280;43754;56.992;24.292;2023-02-15T11:58:52;102934.22;;;1.84;100.00
57948;BME280;43754;56.992;24.292;2023-02-15T12:01:30;102934.75;;;1.73;100.00
57948;BME280;43754;56.992;24.292;2023-02-15T12:04:06;102934.59;;;1.76;100.00
57948;BME280;43754;56.992;24.292;2023-02-15T12:06:43;102932.97;;;1.74;100.00
57948;BME280;43754;56.992;24.292;2023-02-15T12:09:24;102926.66;;;1.76;100.00
57948;BME280;43754;56.992;24.292;2023-02-15T12:12:20;102926.94;;;1.70;100.00
57948;BME280;43754;56.992;24.292;2023-02-15T12:14:56;102925.72;;;1.77;100.00
57948;BME280;43754;56.992;24.292;2023-02-15T12:17:31;102925.22;;;1.69;100.00
57948;BME280;43754;56.992;24.292;2023-02-15T12:20:20;102922.38;;;1.74;100.00
57948;BME280;43754;56.992;24.292;2023-02-15T12:22:54;102934.69;;;1.75;100.00
57948;BME280;43754;56.992;24.292;2023-02-15T12:25:36;102935.81;;;1.69;100.00
57948;BME280;43754;56.992;24.292;2023-02-15T12:28:24;102932.31;;;1.69;100.00
57948;BME280;43754;56.992;24.292;2023-02-15T12:30:59;102929.59;;;1.70;100.00
57948;BME280;43754;56.992;24.292;2023-02-15T12:33:35;102936.16;;;1.80;100.00
57948;BME280;43754;56.992;24.292;2023-02-15T12:36:12;102926.66;;;1.76;100.00
57948;BME280;43754;56.992;24.292;2023-02-15T12:39:03;102922.72;;;1.66;100.00
57948;BME280;43754;56.992;24.292;2023-02-15T12:41:36;102918.00;;;1.73;100.00
57948;BME280;43754;56.992;24.292;2023-02-15T12:44:16;102914.25;;;1.78;100.00
57948;BME280;43754;56.992;24.292;2023-02-15T12:46:58;102913.69;;;1.91;100.00
57948;BME280;43754;56.992;24.292;2023-02-15T12:49:32;102907.59;;;1.89;100.00
57948;BME280;43754;56.992;24.292;2023-02-15T12:52:06;102911.09;;;1.89;100.00
57948;BME280;43754;56.992;24.292;2023-02-15T12:54:54;102908.88;;;1.99;100.00
57948;BME280;43754;56.992;24.292;2023-02-15T12:57:27;102899.72;;;2.06;100.00
57948;BME280;43754;56.992;24.292;2023-02-15T13:00:00;102903.00;;;2.11;100.00
57948;BME280;43754;56.992;24.292;2023-02-15T13:02:41;102890.91;;;2.24;100.00
57948;BME280;43754;56.992;24.292;2023-02-15T13:05:19;102890.53;;;2.31;100.00
57948;BME280;43754;56.992;24.292;2023-02-15T13:07:57;102881.53;;;2.36;100.00
57948;BME280;43754;56.992;24.292;2023-02-15T13:10:35;102874.44;;;2.36;100.00
57948;BME280;43754;56.992;24.292;2023-02-15T13:13:10;102879.09;;;2.31;100.00
57948;BME280;43754;56.992;24.292;2023-02-15T13:15:44;102873.75;;;2.33;100.00
57948;BME280;43754;56.992;24.292;2023-02-15T13:18:29;102880.03;;;2.30;100.00
57948;BME280;43754;56.992;24.292;2023-02-15T13:21:09;102874.47;;;2.17;100.00
57948;BME280;43754;56.992;24.292;2023-02-15T13:23:44;102873.75;;;2.14;100.00
57948;BME280;43754;56.992;24.292;2023-02-15T13:26:20;102866.25;;;2.05;100.00
57948;BME280;43754;56.992;24.292;2023-02-15T13:28:55;102861.75;;;2.07;100.00
57948;BME280;43754;56.992;24.292;2023-02-15T13:31:29;102855.47;;;2.09;100.00
57948;BME280;43754;56.992;24.292;2023-02-15T13:34:09;102855.28;;;1.95;100.00